Time;durP1;ratioP1;P1;durP2;ratioP2;P2;SDS_P1;SDS_P2;PMS_P1;PMS_P2;Temp;Humidity;BMP_temperature;BMP_pressure;BME280_temperature;BME280_humidity;BME280_pressure;Samples;Min_cycle;Max_cycle;Signal;HPM_P1;HPM_P2
2023/06/15 00:00:08;;;;;;;11.85;3.90;;;17.10;74.00;;;;;;5006609;28;20030;-75
2023/06/15 00:02:34;;;;;;;7.07;3.83;;;17.00;73.90;;;;;;5007736;28;20018;-75
2023/06/15 00:05:00;;;;;;;8.23;3.80;;;17.00;74.00;;;;;;5004060;28;20103;-76
2023/06/15 00:07:25;;;;;;;6.28;3.78;;;16.90;74.20;;;;;;5007122;28;20026;-75
2023/06/15 00:09:51;;;;;;;7.40;3.70;;;17.00;74.50;;;;;;5006434;28;20564;-76
2023/06/15 00:12:17;;;;;;;4.95;3.47;;;16.90;74.50;;;;;;5005235;28;20026;-76
2023/06/15 00:14:42;;;;;;;7.00;3.72;;;16.90;74.60;;;;;;5008067;28;20030;-76
2023/06/15 00:17:08;;;;;;;5.93;3.50;;;16.90;74.70;;;;;;5006196;28;20068;-76
2023/06/15 00:19:33;;;;;;;7.95;4.03;;;16.80;75.00;;;;;;5007245;28;20029;-76
2023/06/15 00:21:59;;;;;;;5.22;3.47;;;16.80;75.10;;;;;;5002447;28;20508;-76
2023/06/15 00:24:24;;;;;;;5.68;3.70;;;16.70;75.30;;;;;;5007703;28;20022;-75
2023/06/15 00:26:50;;;;;;;7.57;3.33;;;16.70;75.60;;;;;;5003266;28;20538;-76
2023/06/15 00:29:16;;;;;;;5.10;3.63;;;16.60;75.70;;;;;;5002701;28;20032;-75
2023/06/15 00:31:41;;;;;;;4.40;3.25;;;16.60;76.00;;;;;;5000024;28;20026;-74
2023/06/15 00:34:07;;;;;;;6.22;4.13;;;16.60;76.00;;;;;;5003930;28;20044;-75
2023/06/15 00:36:33;;;;;;;6.20;4.25;;;16.60;76.00;;;;;;5018898;28;20026;-76
2023/06/15 00:38:58;;;;;;;5.22;4.05;;;16.60;76.10;;;;;;5006311;28;20505;-76
2023/06/15 00:41:25;;;;;;;7.90;3.83;;;16.50;76.20;;;;;;5005705;28;20040;-73
2023/06/15 00:43:52;;;;;;;5.47;3.60;;;16.50;76.40;;;;;;5001919;28;20105;-75
2023/06/15 00:46:17;;;;;;;8.38;3.88;;;16.40;76.30;;;;;;5005986;28;20025;-76
2023/06/15 00:48:43;;;;;;;4.72;3.92;;;16.40;77.10;;;;;;5003021;28;20048;-75
2023/06/15 00:51:09;;;;;;;6.10;3.90;;;16.40;76.60;;;;;;5007967;28;20026;-76
2023/06/15 00:53:37;;;;;;;5.65;4.13;;;16.30;76.80;;;;;;5003209;28;20062;-75
2023/06/15 00:56:04;;;;;;;9.05;4.18;;;16.30;77.10;;;;;;5001699;28;20036;-75
2023/06/15 00:58:31;;;;;;;5.80;3.80;;;16.30;77.20;;;;;;5003901;28;20034;-75
2023/06/15 01:00:56;;;;;;;5.30;3.80;;;16.20;77.30;;;;;;5006270;28;20183;-74
2023/06/15 01:03:22;;;;;;;6.47;4.03;;;16.20;77.50;;;;;;5009541;28;20046;-75
2023/06/15 01:05:52;;;;;;;7.15;3.53;;;16.10;77.70;;;;;;5003034;28;20038;-74
2023/06/15 01:08:20;;;;;;;7.03;4.15;;;16.10;78.20;;;;;;4999950;28;20022;-73
2023/06/15 01:10:46;;;;;;;5.53;3.53;;;16.00;78.60;;;;;;5003229;28;20041;-73
2023/06/15 01:13:12;;;;;;;6.82;3.53;;;15.90;78.80;;;;;;5005933;28;20076;-73
2023/06/15 01:15:40;;;;;;;6.32;3.80;;;15.90;78.90;;;;;;5006620;28;20469;-73
2023/06/15 01:18:07;;;;;;;5.38;4.13;;;15.90;78.80;;;;;;5004009;28;20026;-72
2023/06/15 01:20:40;;;;;;;5.28;3.55;;;15.90;78.90;;;;;;5001573;28;20473;-73
2023/06/15 01:23:19;;;;;;;6.88;3.38;;;15.90;78.70;;;;;;5000645;28;20022;-73
2023/06/15 01:25:44;;;;;;;5.18;3.90;;;15.80;78.40;;;;;;5001853;28;20065;-73
2023/06/15 01:28:12;;;;;;;8.02;3.70;;;15.80;78.20;;;;;;5005995;28;20469;-74
2023/06/15 01:30:42;;;;;;;7.22;3.90;;;15.80;78.30;;;;;;5004828;28;20045;-73
2023/06/15 01:33:08;;;;;;;6.43;3.88;;;15.80;78.30;;;;;;5003462;28;20046;-73
2023/06/15 01:35:33;;;;;;;5.30;3.75;;;15.70;78.30;;;;;;5006178;28;20121;-73
2023/06/15 01:37:59;;;;;;;6.03;4.15;;;15.70;78.40;;;;;;5005452;28;20601;-74
2023/06/15 01:40:25;;;;;;;6.65;4.30;;;15.70;78.40;;;;;;5035168;22;20049;-75
2023/06/15 01:42:52;;;;;;;7.32;3.92;;;15.60;78.60;;;;;;5018405;28;20040;-75
2023/06/15 01:45:20;;;;;;;9.02;4.25;;;15.60;78.80;;;;;;5023728;28;20487;-74
2023/06/15 01:47:48;;;;;;;7.20;4.90;;;15.60;78.90;;;;;;5023316;28;20036;-75
2023/06/15 01:50:16;;;;;;;6.13;3.97;;;15.50;79.00;;;;;;5024141;28;20095;-74
2023/06/15 01:52:42;;;;;;;5.95;3.72;;;15.50;79.10;;;;;;5022532;28;20038;-75
2023/06/15 01:55:08;;;;;;;5.47;3.90;;;15.40;79.60;;;;;;5024442;28;20096;-74
2023/06/15 01:57:38;;;;;;;6.05;4.00;;;15.40;79.50;;;;;;5025297;28;20029;-75
2023/06/15 02:00:06;;;;;;;8.55;4.15;;;15.40;79.90;;;;;;5028253;28;20120;-75
2023/06/15 02:02:32;;;;;;;8.20;4.70;;;15.30;80.50;;;;;;5043432;28;20063;-74
2023/06/15 02:04:58;;;;;;;8.45;4.35;;;15.30;81.10;;;;;;5021229;28;20028;-75
2023/06/15 02:07:23;;;;;;;7.93;4.30;;;15.20;81.20;;;;;;5022748;28;20411;-74
2023/06/15 02:09:49;;;;;;;4.47;3.67;;;15.20;80.90;;;;;;5023586;28;20076;-75
2023/06/15 02:12:15;;;;;;;7.15;4.13;;;15.20;80.70;;;;;;5023295;28;20066;-75
2023/06/15 02:14:40;;;;;;;5.88;4.68;;;15.10;80.50;;;;;;5023332;28;20021;-74
2023/06/15 02:17:06;;;;;;;7.28;4.28;;;15.10;80.70;;;;;;5024749;28;20083;-75
2023/06/15 02:19:32;;;;;;;7.07;4.35;;;15.10;80.70;;;;;;5025536;28;20115;-74
2023/06/15 02:21:57;;;;;;;7.53;3.70;;;15.10;80.90;;;;;;5024699;28;20032;-74
2023/06/15 02:24:23;;;;;;;5.82;4.50;;;15.10;80.90;;;;;;5026018;28;20061;-75
2023/06/15 02:26:49;;;;;;;6.00;4.03;;;15.00;80.80;;;;;;5019310;28;20532;-75
2023/06/15 02:29:15;;;;;;;7.72;4.20;;;15.00;81.50;;;;;;5024836;28;20517;-75
2023/06/15 02:31:40;;;;;;;5.40;4.25;;;15.00;81.00;;;;;;5024624;28;20030;-74
2023/06/15 02:34:06;;;;;;;6.10;4.00;;;14.90;81.00;;;;;;5021999;28;20029;-74
2023/06/15 02:36:34;;;;;;;6.60;4.47;;;14.90;81.00;;;;;;5023732;28;20033;-74
2023/06/15 02:39:01;;;;;;;8.07;3.80;;;14.90;81.10;;;;;;5022123;28;20025;-74
2023/06/15 02:41:27;;;;;;;7.45;4.40;;;14.90;81.30;;;;;;5023357;28;20032;-74
2023/06/15 02:43:52;;;;;;;5.80;4.00;;;14.90;81.50;;;;;;5019979;28;20026;-73
2023/06/15 02:46:20;;;;;;;8.73;4.40;;;14.80;81.60;;;;;;5024357;28;20033;-74
2023/06/15 02:48:51;;;;;;;7.55;4.07;;;14.80;81.60;;;;;;5023214;28;20049;-74
2023/06/15 02:51:19;;;;;;;5.53;4.53;;;14.80;81.90;;;;;;5027003;28;20033;-75
2023/06/15 02:53:46;;;;;;;7.15;4.45;;;14.70;81.90;;;;;;5022386;28;20025;-74
2023/06/15 02:56:18;;;;;;;7.85;4.45;;;14.70;82.00;;;;;;5026285;28;20025;-73
2023/06/15 02:58:47;;;;;;;6.40;3.97;;;14.70;82.20;;;;;;5024332;28;20021;-73
2023/06/15 03:01:15;;;;;;;7.95;4.18;;;14.70;82.20;;;;;;5026527;28;20404;-74
2023/06/15 03:03:42;;;;;;;6.82;4.88;;;14.70;82.20;;;;;;5022018;28;20488;-74
2023/06/15 03:06:09;;;;;;;10.95;4.97;;;14.70;82.40;;;;;;5023602;28;20396;-74
2023/06/15 03:08:36;;;;;;;5.25;4.43;;;14.70;82.60;;;;;;5023763;28;20484;-75
2023/06/15 03:11:03;;;;;;;7.25;4.90;;;14.70;82.80;;;;;;5021269;28;20038;-75
2023/06/15 03:13:31;;;;;;;6.90;4.80;;;14.60;82.80;;;;;;5025192;28;20037;-75
2023/06/15 03:16:00;;;;;;;9.35;4.93;;;14.60;83.00;;;;;;5024280;28;20048;-74
2023/06/15 03:18:27;;;;;;;6.97;4.40;;;14.60;83.10;;;;;;5021667;28;20034;-74
2023/06/15 03:20:52;;;;;;;7.65;4.53;;;14.50;83.20;;;;;;5025187;28;20036;-74
2023/06/15 03:23:21;;;;;;;7.32;5.03;;;14.50;83.30;;;;;;5018776;28;20025;-74
2023/06/15 03:25:49;;;;;;;7.47;4.50;;;14.50;83.40;;;;;;5019567;28;20029;-74
2023/06/15 03:28:16;;;;;;;8.15;4.88;;;14.50;83.50;;;;;;5022018;28;20018;-75
2023/06/15 03:30:46;;;;;;;6.57;5.35;;;14.50;83.60;;;;;;5022194;28;20022;-73
2023/06/15 03:33:13;;;;;;;5.88;4.60;;;14.40;83.60;;;;;;5021795;28;20034;-74
2023/06/15 03:35:39;;;;;;;7.35;4.63;;;14.50;83.60;;;;;;5021049;28;20305;-74
2023/06/15 03:38:06;;;;;;;8.55;5.30;;;14.50;83.70;;;;;;5024709;28;20434;-74
2023/06/15 03:40:36;;;;;;;8.15;5.03;;;14.50;83.70;;;;;;5021415;28;20529;-74
2023/06/15 03:43:02;;;;;;;7.43;4.18;;;14.40;83.60;;;;;;5019564;28;20041;-74
2023/06/15 03:45:28;;;;;;;9.10;4.65;;;14.40;83.60;;;;;;5021331;28;20364;-75
2023/06/15 03:47:53;;;;;;;9.90;5.80;;;14.40;83.70;;;;;;5024341;28;20075;-74
2023/06/15 03:50:19;;;;;;;6.70;4.22;;;14.40;83.80;;;;;;5023749;28;20021;-74
2023/06/15 03:52:45;;;;;;;6.40;4.60;;;14.40;83.90;;;;;;5041549;28;20037;-74
2023/06/15 03:55:13;;;;;;;8.18;4.95;;;14.30;83.90;;;;;;5027516;28;20013;-74
2023/06/15 03:57:38;;;;;;;9.10;4.45;;;14.40;84.00;;;;;;5022741;28;20022;-74
2023/06/15 04:00:07;;;;;;;6.15;4.78;;;14.30;84.00;;;;;;5024254;28;20025;-74
2023/06/15 04:02:33;;;;;;;6.70;4.60;;;14.30;84.10;;;;;;5025878;28;20128;-74
2023/06/15 04:05:00;;;;;;;8.18;4.38;;;14.30;84.20;;;;;;5024842;28;20113;-74
2023/06/15 04:07:28;;;;;;;5.15;4.10;;;14.30;84.30;;;;;;5026301;28;20108;-74
2023/06/15 04:09:54;;;;;;;6.72;4.18;;;14.40;84.30;;;;;;5025058;28;20429;-74
2023/06/15 04:12:20;;;;;;;7.70;4.75;;;14.40;84.30;;;;;;5024504;28;20071;-75
2023/06/15 04:14:46;;;;;;;11.55;4.55;;;14.40;84.30;;;;;;5024335;28;20475;-74
2023/06/15 04:17:12;;;;;;;5.78;4.47;;;14.40;84.30;;;;;;5025349;28;20132;-75
2023/06/15 04:19:37;;;;;;;6.88;4.63;;;14.40;84.30;;;;;;5020218;28;20062;-74
2023/06/15 04:22:03;;;;;;;6.80;4.85;;;14.40;84.30;;;;;;5022626;28;20056;-75
2023/06/15 04:24:29;;;;;;;8.48;4.70;;;14.40;84.20;;;;;;5022797;28;20421;-75
2023/06/15 04:26:57;;;;;;;6.82;4.07;;;14.40;84.20;;;;;;5022887;28;20537;-75
2023/06/15 04:29:22;;;;;;;8.32;4.32;;;14.40;84.30;;;;;;5019440;28;20044;-75
2023/06/15 04:31:54;;;;;;;9.35;4.68;;;14.50;84.30;;;;;;5024175;28;20029;-75
2023/06/15 04:34:22;;;;;;;7.65;4.93;;;14.50;84.40;;;;;;5021001;28;20025;-75
2023/06/15 04:36:48;;;;;;;9.68;4.55;;;14.50;84.60;;;;;;5016896;28;20013;-74
2023/06/15 04:39:14;;;;;;;7.07;4.47;;;14.50;85.00;;;;;;5024071;28;20561;-74
2023/06/15 04:41:40;;;;;;;8.75;5.15;;;14.50;85.00;;;;;;5018698;28;20017;-75
2023/06/15 04:44:06;;;;;;;13.95;5.32;;;14.60;85.30;;;;;;5021526;28;20032;-75
2023/06/15 04:46:32;;;;;;;9.13;5.43;;;14.60;85.20;;;;;;5017829;28;20053;-77
2023/06/15 04:49:00;;;;;;;8.38;5.32;;;14.70;84.90;;;;;;5018421;28;20148;-77
2023/06/15 04:51:26;;;;;;;8.02;4.75;;;14.70;84.60;;;;;;5024164;28;20049;-76
2023/06/15 04:53:52;;;;;;;11.30;5.47;;;14.80;84.30;;;;;;5017390;28;20148;-74
2023/06/15 04:56:17;;;;;;;8.48;4.57;;;14.90;84.10;;;;;;5024018;28;20108;-75
2023/06/15 04:58:43;;;;;;;10.73;5.18;;;15.00;83.70;;;;;;5024123;28;20075;-74
2023/06/15 05:01:09;;;;;;;9.30;5.00;;;15.00;83.40;;;;;;5024682;28;20017;-74
2023/06/15 05:03:35;;;;;;;7.50;4.90;;;15.00;83.30;;;;;;5020015;28;20030;-74
2023/06/15 05:06:00;;;;;;;10.07;5.15;;;15.10;83.30;;;;;;5019525;28;20029;-73
2023/06/15 05:08:26;;;;;;;7.35;4.65;;;15.10;83.30;;;;;;5026368;28;20036;-74
2023/06/15 05:10:52;;;;;;;9.15;4.90;;;15.10;83.20;;;;;;5025365;28;20019;-76
2023/06/15 05:13:17;;;;;;;8.23;4.50;;;15.10;83.20;;;;;;5026118;28;20156;-76
2023/06/15 05:15:43;;;;;;;6.88;4.63;;;15.10;83.20;;;;;;5025655;28;20052;-75
2023/06/15 05:18:08;;;;;;;8.48;4.90;;;15.10;83.40;;;;;;5017911;28;20423;-68
2023/06/15 05:20:34;;;;;;;8.90;4.68;;;15.20;83.60;;;;;;5014170;28;20134;-69
2023/06/15 05:23:00;;;;;;;11.90;4.68;;;15.10;83.70;;;;;;5018470;28;20472;-70
2023/06/15 05:25:26;;;;;;;5.93;4.70;;;15.20;83.50;;;;;;5017357;28;20087;-69
2023/06/15 05:27:51;;;;;;;8.23;4.78;;;15.10;83.60;;;;;;5027553;28;20383;-69
2023/06/15 05:30:17;;;;;;;10.27;4.40;;;15.10;83.70;;;;;;5020627;28;20033;-69
2023/06/15 05:32:43;;;;;;;9.63;5.13;;;15.20;83.70;;;;;;5024317;28;20033;-75
2023/06/15 05:35:09;;;;;;;7.57;4.80;;;15.20;83.60;;;;;;5029567;28;20017;-74
2023/06/15 05:37:35;;;;;;;10.82;5.47;;;15.30;83.70;;;;;;5027883;28;20040;-75
2023/06/15 05:40:03;;;;;;;5.93;4.90;;;15.30;83.50;;;;;;5027407;28;20056;-74
2023/06/15 05:42:29;;;;;;;9.15;5.22;;;15.30;83.40;;;;;;5026533;28;20033;-74
2023/06/15 05:44:55;;;;;;;9.05;5.07;;;15.40;83.40;;;;;;5023703;28;20041;-76
2023/06/15 05:47:21;;;;;;;9.95;5.20;;;15.40;83.60;;;;;;5024702;28;20033;-75
2023/06/15 05:49:47;;;;;;;6.88;4.75;;;15.50;83.80;;;;;;5024525;28;20397;-73
2023/06/15 05:52:14;;;;;;;8.65;5.38;;;15.60;83.90;;;;;;5027871;28;20104;-72
2023/06/15 05:54:43;;;;;;;9.13;5.50;;;15.80;83.70;;;;;;5026874;28;20025;-72
2023/06/15 05:57:10;;;;;;;7.03;4.93;;;15.90;83.10;;;;;;5027357;28;20029;-73
2023/06/15 05:59:36;;;;;;;9.82;5.35;;;16.00;82.90;;;;;;5018357;28;20025;-73
2023/06/15 06:02:02;;;;;;;10.80;6.00;;;16.10;82.80;;;;;;5025126;28;20025;-72
2023/06/15 06:04:28;;;;;;;9.95;5.15;;;16.20;82.30;;;;;;5027556;28;20026;-72
2023/06/15 06:06:54;;;;;;;10.27;5.43;;;16.40;82.00;;;;;;5027554;28;20028;-72
2023/06/15 06:09:19;;;;;;;10.43;6.03;;;16.60;81.50;;;;;;5026148;28;20491;-72
2023/06/15 06:11:47;;;;;;;9.65;5.68;;;16.90;81.20;;;;;;5029506;28;20515;-73
2023/06/15 06:14:13;;;;;;;10.07;5.35;;;17.00;80.60;;;;;;5026895;28;20097;-72
2023/06/15 06:16:39;;;;;;;9.27;5.13;;;17.20;80.50;;;;;;5027160;28;20199;-73
2023/06/15 06:19:05;;;;;;;10.82;4.70;;;17.40;79.70;;;;;;5028985;28;20017;-73
2023/06/15 06:21:32;;;;;;;6.43;4.80;;;17.50;79.30;;;;;;5027377;28;20395;-73
2023/06/15 06:23:58;;;;;;;7.22;5.25;;;17.60;79.00;;;;;;5027337;28;20379;-73
2023/06/15 06:26:24;;;;;;;7.70;4.75;;;17.70;78.70;;;;;;5025294;28;20036;-73
2023/06/15 06:28:50;;;;;;;8.75;4.90;;;17.80;78.50;;;;;;5026089;28;20026;-73
2023/06/15 06:31:15;;;;;;;9.48;4.47;;;17.90;78.50;;;;;;5024585;28;20030;-73
2023/06/15 06:33:41;;;;;;;10.40;5.38;;;18.00;78.00;;;;;;5026392;28;20029;-72
2023/06/15 06:36:08;;;;;;;11.35;5.35;;;18.00;77.70;;;;;;5028701;28;20128;-72
2023/06/15 06:38:34;;;;;;;6.38;5.13;;;18.10;77.60;;;;;;5023012;28;20061;-72
2023/06/15 06:41:00;;;;;;;11.00;5.43;;;18.20;77.30;;;;;;5028837;28;20021;-72
2023/06/15 06:43:26;;;;;;;9.73;5.93;;;18.30;77.00;;;;;;5015643;28;20388;-73
2023/06/15 06:45:52;;;;;;;15.05;6.32;;;18.30;76.90;;;;;;5016336;28;20484;-73
2023/06/15 06:48:17;;;;;;;10.88;6.50;;;18.40;77.00;;;;;;5022034;28;20033;-73
2023/06/15 06:50:43;;;;;;;7.78;5.72;;;18.50;76.80;;;;;;5026789;28;20112;-72
2023/06/15 06:53:10;;;;;;;11.63;5.65;;;18.60;76.40;;;;;;5026995;28;20041;-75
2023/06/15 06:55:35;;;;;;;15.38;6.45;;;18.60;76.20;;;;;;5018568;28;20030;-73
2023/06/15 06:58:01;;;;;;;10.88;6.18;;;18.60;75.80;;;;;;5023466;28;20125;-73
2023/06/15 07:00:30;;;;;;;12.88;6.78;;;18.70;75.90;;;;;;5022696;28;20053;-73
2023/06/15 07:02:56;;;;;;;9.23;6.10;;;18.70;75.50;;;;;;5021514;28;20388;-72
2023/06/15 07:05:22;;;;;;;11.85;7.03;;;18.70;75.60;;;;;;5017488;28;20045;-73
2023/06/15 07:07:48;;;;;;;11.10;5.75;;;18.80;75.60;;;;;;5024412;28;20028;-72
2023/06/15 07:10:14;;;;;;;13.40;6.22;;;18.80;75.40;;;;;;5030017;28;20025;-72
2023/06/15 07:12:40;;;;;;;8.45;5.80;;;18.80;75.50;;;;;;5024503;28;20025;-71
2023/06/15 07:15:06;;;;;;;9.23;6.00;;;18.80;75.60;;;;;;5024082;28;20060;-72
2023/06/15 07:17:32;;;;;;;13.52;6.32;;;18.80;75.70;;;;;;5024805;28;20072;-71
2023/06/15 07:19:58;;;;;;;11.38;6.43;;;18.80;75.60;;;;;;5021931;28;20034;-71
2023/06/15 07:22:24;;;;;;;12.52;6.97;;;18.80;76.80;;;;;;5027020;28;20118;-71
2023/06/15 07:24:50;;;;;;;11.48;6.32;;;18.80;77.20;;;;;;5025543;28;20126;-72
2023/06/15 07:27:17;;;;;;;13.15;6.68;;;18.80;76.90;;;;;;5022776;28;20052;-71
2023/06/15 07:29:43;;;;;;;9.75;5.45;;;18.70;77.00;;;;;;5023270;28;20037;-71
2023/06/15 07:32:09;;;;;;;10.73;5.63;;;18.70;77.40;;;;;;5025384;28;20056;-72
2023/06/15 07:34:34;;;;;;;7.32;5.57;;;18.70;77.50;;;;;;5026726;28;20026;-72
2023/06/15 07:37:00;;;;;;;11.95;6.13;;;18.70;77.50;;;;;;5019876;28;20067;-72
2023/06/15 07:39:25;;;;;;;9.40;6.28;;;18.80;77.80;;;;;;5039940;22;20080;-74
2023/06/15 07:41:51;;;;;;;5.93;5.13;;;18.80;76.50;;;;;;5026327;28;20072;-73
2023/06/15 07:44:17;;;;;;;8.63;5.93;;;18.90;76.30;;;;;;5028356;28;20029;-74
2023/06/15 07:46:42;;;;;;;10.13;6.32;;;19.00;76.30;;;;;;5030007;28;20033;-73
2023/06/15 07:49:08;;;;;;;8.52;5.45;;;19.00;76.10;;;;;;5027439;28;20068;-74
2023/06/15 07:51:35;;;;;;;8.48;5.88;;;19.10;75.40;;;;;;5025502;28;20028;-73
2023/06/15 07:54:01;;;;;;;7.85;4.70;;;19.00;74.80;;;;;;5025168;28;20034;-73
2023/06/15 07:56:27;;;;;;;12.43;6.00;;;19.10;73.90;;;;;;5028396;28;20033;-74
2023/06/15 07:58:53;;;;;;;8.43;5.53;;;19.20;74.40;;;;;;5024147;28;20022;-74
2023/06/15 08:01:19;;;;;;;6.95;5.07;;;19.20;74.20;;;;;;5027839;28;20048;-74
2023/06/15 08:03:45;;;;;;;8.05;5.25;;;19.20;74.30;;;;;;5028589;28;20061;-73
2023/06/15 08:06:11;;;;;;;6.88;5.68;;;19.20;74.50;;;;;;5028694;28;20040;-74
2023/06/15 08:08:37;;;;;;;10.57;5.78;;;19.30;74.80;;;;;;5032195;28;20072;-74
2023/06/15 08:11:05;;;;;;;9.55;5.80;;;19.40;75.00;;;;;;5029908;28;20060;-74
2023/06/15 08:13:31;;;;;;;6.65;5.30;;;19.40;74.70;;;;;;5027439;28;20503;-73
2023/06/15 08:15:57;;;;;;;8.25;5.30;;;19.50;74.90;;;;;;5025250;28;20693;-73
2023/06/15 08:18:23;;;;;;;8.18;5.57;;;19.60;75.40;;;;;;5031021;28;20488;-74
2023/06/15 08:20:48;;;;;;;9.02;5.38;;;19.60;75.50;;;;;;5029363;28;20036;-74
2023/06/15 08:23:15;;;;;;;10.27;5.45;;;19.60;75.60;;;;;;5022340;28;20037;-73
2023/06/15 08:25:41;;;;;;;6.40;4.85;;;19.70;75.50;;;;;;5025229;28;20464;-73
2023/06/15 08:28:07;;;;;;;16.77;5.57;;;19.80;75.80;;;;;;5023174;28;20036;-74
2023/06/15 08:30:33;;;;;;;7.00;4.95;;;19.80;75.70;;;;;;5028928;28;20621;-75
2023/06/15 08:32:59;;;;;;;6.13;5.10;;;20.00;75.60;;;;;;5031248;28;20116;-74
2023/06/15 08:35:25;;;;;;;7.00;4.68;;;20.10;74.80;;;;;;5030085;28;20496;-75
2023/06/15 08:37:50;;;;;;;12.52;4.95;;;20.10;74.00;;;;;;5024806;28;20373;-74
2023/06/15 08:40:16;;;;;;;10.73;5.05;;;20.20;72.90;;;;;;5026291;28;20053;-73
2023/06/15 08:42:42;;;;;;;11.63;4.70;;;20.30;72.50;;;;;;5030519;28;20022;-73
2023/06/15 08:45:08;;;;;;;6.03;4.47;;;20.30;72.60;;;;;;5024670;28;20041;-72
2023/06/15 08:47:34;;;;;;;7.13;4.10;;;20.50;72.80;;;;;;5031160;28;20038;-73
2023/06/15 08:50:02;;;;;;;7.22;4.15;;;20.50;71.80;;;;;;5031972;28;20021;-73
2023/06/15 08:52:32;;;;;;;7.32;3.95;;;20.60;71.50;;;;;;5026888;28;20029;-73
2023/06/15 08:54:59;;;;;;;6.88;4.22;;;20.70;70.80;;;;;;5022941;28;20032;-73
2023/06/15 08:57:25;;;;;;;7.05;4.25;;;20.80;70.60;;;;;;5025145;28;20022;-74
2023/06/15 08:59:52;;;;;;;7.90;4.32;;;20.90;70.30;;;;;;5020314;28;20096;-72
2023/06/15 09:02:21;;;;;;;8.43;4.60;;;21.00;70.30;;;;;;5020743;28;20475;-73
2023/06/15 09:04:51;;;;;;;6.35;4.60;;;21.10;69.80;;;;;;5024475;28;20033;-73
2023/06/15 09:07:21;;;;;;;5.07;4.10;;;21.10;69.90;;;;;;5026571;28;20097;-73
2023/06/15 09:10:08;;;;;;;7.82;4.20;;;21.20;68.90;;;;;;5030772;28;20504;-73
2023/06/15 09:12:34;;;;;;;10.73;4.00;;;21.20;68.60;;;;;;5029523;28;20042;-73
2023/06/15 09:15:00;;;;;;;5.13;4.03;;;21.30;68.00;;;;;;5031472;28;20087;-73
2023/06/15 09:17:29;;;;;;;5.50;3.50;;;21.30;68.20;;;;;;5028950;28;20030;-73
2023/06/15 09:19:55;;;;;;;5.72;3.30;;;21.40;67.70;;;;;;5029607;28;20109;-72
2023/06/15 09:22:22;;;;;;;5.97;3.65;;;21.50;67.30;;;;;;5031366;28;20083;-72
2023/06/15 09:24:48;;;;;;;7.32;3.72;;;21.60;66.50;;;;;;5033688;28;20057;-72
2023/06/15 09:27:17;;;;;;;12.20;4.70;;;21.60;66.10;;;;;;5023104;28;20669;-73
2023/06/15 09:30:03;;;;;;;10.40;5.00;;;21.70;65.90;;;;;;5028136;28;20029;-74
2023/06/15 09:32:29;;;;;;;8.35;3.67;;;21.70;66.80;;;;;;5027603;28;20030;-74
2023/06/15 09:34:58;;;;;;;5.78;4.13;;;21.70;67.50;;;;;;5031741;28;20060;-73
2023/06/15 09:37:28;;;;;;;6.18;3.67;;;21.80;66.40;;;;;;5031320;28;20029;-72
2023/06/15 09:39:54;;;;;;;4.40;3.38;;;21.80;64.80;;;;;;5025145;28;20463;-71
2023/06/15 09:42:28;;;;;;;4.82;3.20;;;21.90;65.10;;;;;;5031788;28;20033;-73
2023/06/15 09:45:03;;;;;;;10.13;3.80;;;21.90;64.80;;;;;;5027101;28;20545;-73
2023/06/15 09:47:30;;;;;;;5.45;3.70;;;22.00;64.60;;;;;;5030544;28;20025;-74
2023/06/15 09:49:56;;;;;;;4.88;4.05;;;22.10;64.30;;;;;;5031076;28;20957;-73
2023/06/15 09:52:22;;;;;;;6.60;3.33;;;22.10;63.60;;;;;;5027894;28;20033;-74
2023/06/15 09:54:48;;;;;;;8.02;3.33;;;22.10;62.20;;;;;;5026465;28;20036;-74
2023/06/15 09:57:18;;;;;;;6.43;3.30;;;22.10;62.50;;;;;;5026124;28;20043;-73
2023/06/15 09:59:44;;;;;;;6.90;3.00;;;22.10;61.50;;;;;;5024721;28;20104;-73
2023/06/15 10:02:14;;;;;;;6.60;3.30;;;22.10;60.20;;;;;;5026751;28;20041;-73
2023/06/15 10:04:42;;;;;;;4.10;2.95;;;22.20;61.20;;;;;;5043946;28;20033;-73
2023/06/15 10:07:12;;;;;;;5.63;4.13;;;22.20;61.50;;;;;;5029115;28;20033;-73
2023/06/15 10:09:44;;;;;;;7.60;3.00;;;22.30;61.50;;;;;;5044919;28;20041;-73
2023/06/15 10:12:16;;;;;;;7.28;3.30;;;22.30;60.30;;;;;;5025242;28;20749;-73
2023/06/15 10:14:58;;;;;;;4.25;3.00;;;22.30;60.30;;;;;;5028800;28;20437;-73
2023/06/15 10:17:30;;;;;;;6.55;3.40;;;22.40;60.70;;;;;;5028960;28;20053;-74
2023/06/15 10:20:08;;;;;;;5.00;2.83;;;22.50;60.00;;;;;;5027807;28;20475;-73
2023/06/15 10:22:37;;;;;;;5.28;3.00;;;22.50;59.30;;;;;;5027757;28;20025;-72
2023/06/15 10:25:05;;;;;;;4.35;2.42;;;22.70;58.50;;;;;;5025979;28;20033;-73
2023/06/15 10:27:31;;;;;;;3.40;2.78;;;22.70;58.00;;;;;;5028289;28;20037;-73
2023/06/15 10:30:07;;;;;;;3.92;3.03;;;22.70;57.40;;;;;;5027175;28;20036;-73
2023/06/15 10:32:45;;;;;;;5.45;3.42;;;22.80;57.50;;;;;;5029648;28;20083;-73
2023/06/15 10:35:30;;;;;;;5.05;3.30;;;22.90;57.00;;;;;;5026162;28;20049;-73
2023/06/15 10:38:04;;;;;;;4.95;2.75;;;23.00;57.80;;;;;;5023454;28;20475;-73
2023/06/15 10:40:36;;;;;;;5.13;3.63;;;23.10;57.50;;;;;;5021596;28;20068;-73
2023/06/15 10:43:02;;;;;;;4.75;3.10;;;23.00;56.60;;;;;;5025405;28;20028;-73
2023/06/15 10:45:34;;;;;;;5.75;2.80;;;23.00;56.50;;;;;;5025996;28;20030;-72
2023/06/15 10:48:03;;;;;;;5.93;2.93;;;23.00;55.50;;;;;;5025739;28;20350;-73
2023/06/15 10:50:39;;;;;;;4.28;3.10;;;22.90;55.30;;;;;;5029252;28;20033;-73
2023/06/15 10:53:05;;;;;;;3.20;2.40;;;22.90;55.90;;;;;;5025708;28;20029;-72
2023/06/15 10:55:32;;;;;;;3.97;2.47;;;22.90;53.60;;;;;;5025357;28;20049;-73
2023/06/15 10:58:15;;;;;;;5.45;2.90;;;22.80;55.00;;;;;;5025712;28;20105;-73
2023/06/15 11:00:42;;;;;;;3.83;3.30;;;22.70;55.00;;;;;;5022334;28;20022;-72
2023/06/15 11:03:24;;;;;;;4.50;2.58;;;22.70;54.70;;;;;;5029022;28;20041;-72
2023/06/15 11:06:06;;;;;;;5.60;2.90;;;22.80;52.70;;;;;;5042017;28;20041;-72
2023/06/15 11:08:41;;;;;;;4.75;3.00;;;22.80;51.60;;;;;;5028159;28;20032;-73
2023/06/15 11:11:11;;;;;;;4.57;2.88;;;22.90;51.50;;;;;;5022768;28;20496;-72
2023/06/15 11:13:57;;;;;;;3.40;2.92;;;23.00;53.10;;;;;;5026722;28;20033;-72
2023/06/15 11:16:28;;;;;;;7.90;3.22;;;23.00;54.20;;;;;;5031990;28;20484;-72
2023/06/15 11:19:12;;;;;;;4.65;2.90;;;23.10;54.60;;;;;;5027356;28;20167;-72
2023/06/15 11:21:42;;;;;;;3.53;2.65;;;23.20;54.80;;;;;;5025709;28;20079;-72
2023/06/15 11:24:13;;;;;;;4.90;2.70;;;23.40;54.20;;;;;;5026070;28;20111;-73
2023/06/15 11:26:43;;;;;;;4.47;2.95;;;23.40;54.20;;;;;;5029847;28;20022;-72
2023/06/15 11:29:12;;;;;;;5.18;2.70;;;23.50;54.00;;;;;;5024894;28;20026;-72
2023/06/15 11:31:40;;;;;;;3.92;2.90;;;23.50;53.90;;;;;;5027581;28;20487;-72
2023/06/15 11:34:09;;;;;;;4.65;3.08;;;23.40;54.00;;;;;;5025792;28;20035;-72
2023/06/15 11:36:36;;;;;;;6.80;2.75;;;23.40;54.30;;;;;;5024334;28;20455;-72
2023/06/15 11:39:04;;;;;;;5.80;3.22;;;23.40;54.40;;;;;;5029935;28;20026;-72
2023/06/15 11:41:30;;;;;;;3.60;3.10;;;23.20;55.20;;;;;;5029172;28;20400;-72
2023/06/15 11:43:57;;;;;;;3.63;2.88;;;23.20;55.40;;;;;;5024122;28;20025;-72
2023/06/15 11:46:23;;;;;;;4.78;3.30;;;23.20;55.40;;;;;;5012356;28;20061;-72
2023/06/15 11:48:56;;;;;;;3.28;2.67;;;23.20;55.40;;;;;;5020647;28;20036;-72
2023/06/15 11:51:22;;;;;;;5.95;3.60;;;23.20;54.90;;;;;;5017178;28;20519;-72
2023/06/15 11:53:47;;;;;;;3.25;2.80;;;23.30;54.00;;;;;;5024981;28;20029;-72
2023/06/15 11:56:15;;;;;;;5.75;3.42;;;23.30;54.50;;;;;;5025191;28;20341;-72
2023/06/15 11:58:42;;;;;;;2.97;2.53;;;23.40;54.30;;;;;;5020673;28;20033;-72
2023/06/15 12:01:11;;;;;;;3.53;2.92;;;23.40;54.90;;;;;;5017738;28;20028;-72
2023/06/15 12:03:40;;;;;;;3.85;3.00;;;23.40;54.90;;;;;;5014712;28;20677;-72
2023/06/15 12:06:06;;;;;;;4.35;3.33;;;23.40;54.80;;;;;;5017952;28;20036;-72
2023/06/15 12:08:32;;;;;;;5.25;3.20;;;23.40;54.70;;;;;;5017490;28;21082;-72
2023/06/15 12:10:58;;;;;;;6.63;3.15;;;23.50;56.10;;;;;;5014851;28;20033;-72
2023/06/15 12:13:25;;;;;;;4.85;3.10;;;23.50;56.40;;;;;;5021138;28;20125;-73
2023/06/15 12:15:51;;;;;;;5.28;3.40;;;23.50;56.40;;;;;;5021627;28;20108;-72
2023/06/15 12:18:19;;;;;;;5.43;3.22;;;23.50;56.50;;;;;;5022732;28;20049;-72
2023/06/15 12:20:45;;;;;;;5.82;3.33;;;23.50;56.30;;;;;;5022150;28;20033;-75
2023/06/15 12:23:23;;;;;;;7.72;3.10;;;23.50;56.40;;;;;;5027317;28;20033;-74
2023/06/15 12:25:52;;;;;;;3.80;2.95;;;23.60;56.50;;;;;;5027831;28;20033;-75
2023/06/15 12:28:19;;;;;;;3.47;3.08;;;23.60;55.40;;;;;;5031530;28;20108;-75
2023/06/15 12:30:49;;;;;;;5.93;3.30;;;23.60;55.70;;;;;;5024051;28;20113;-74
2023/06/15 12:33:34;;;;;;;4.35;3.13;;;23.70;55.80;;;;;;5026814;28;20022;-75
2023/06/15 12:36:01;;;;;;;4.47;2.92;;;23.70;55.80;;;;;;5028042;28;20160;-74
2023/06/15 12:38:28;;;;;;;8.32;3.28;;;23.80;55.50;;;;;;5024325;28;20491;-75
2023/06/15 12:40:56;;;;;;;5.43;3.35;;;23.80;54.70;;;;;;5022412;28;20044;-75
2023/06/15 12:43:25;;;;;;;4.10;2.78;;;23.80;54.60;;;;;;5024254;28;20400;-75
2023/06/15 12:45:51;;;;;;;4.18;2.88;;;23.90;54.50;;;;;;5046261;28;20029;-74